Time;durP1;ratioP1;P1;durP2;ratioP2;P2;SDS_P1;SDS_P2;PMS_P1;PMS_P2;Temp;Humidity;BMP_temperature;BMP_pressure;BME280_temperature;BME280_humidity;BME280_pressure;Samples;Min_cycle;Max_cycle;Signal;HPM_P1;HPM_P2
2022/06/20 00:02:24;;;;;;;3.67;1.75;;;;;;;11.49;86.63;99162.50;1737938;81;21688;-62
2022/06/20 00:04:54;;;;;;;1.95;1.05;;;;;;;11.45;86.65;99165.38;1743376;81;21423;-63
2022/06/20 00:07:21;;;;;;;3.90;1.17;;;;;;;11.48;86.66;99159.96;1742180;81;21103;-63
2022/06/20 00:09:48;;;;;;;1.55;0.90;;;;;;;11.48;86.91;99158.66;1742642;80;21052;-62
2022/06/20 00:12:22;;;;;;;3.80;1.10;;;;;;;11.46;86.84;99164.47;1742529;81;28192;-62
2022/06/20 00:14:56;;;;;;;2.80;0.90;;;;;;;11.46;86.90;99161.84;1744424;81;22272;-62
2022/06/20 00:17:23;;;;;;;3.42;1.00;;;;;;;11.43;87.00;99151.94;1719649;81;21523;-63
2022/06/20 00:19:52;;;;;;;1.37;0.90;;;;;;;11.47;87.12;99149.14;1737893;81;21111;-62
2022/06/20 00:22:20;;;;;;;3.42;1.17;;;;;;;11.45;87.11;99145.77;1736807;81;21068;-62
2022/06/20 00:24:46;;;;;;;;;;;;;;;11.43;87.27;99149.80;1746718;81;21069;-62
2022/06/20 00:27:13;;;;;;;3.67;1.32;;;;;;;11.42;87.41;99154.16;1746520;81;20170;-62
2022/06/20 00:29:42;;;;;;;2.58;1.10;;;;;;;11.38;87.70;99148.76;1773295;80;21081;-62
2022/06/20 00:32:11;;;;;;;6.35;1.87;;;;;;;11.39;87.69;99150.90;1775117;79;21181;-62
2022/06/20 00:34:39;;;;;;;2.58;1.30;;;;;;;11.40;87.69;99137.75;1771297;80;21025;-62
2022/06/20 00:37:06;;;;;;;2.10;1.17;;;;;;;11.40;87.69;99137.75;1775405;80;21532;-62
2022/06/20 00:39:33;;;;;;;4.47;1.32;;;;;;;11.45;87.72;99141.84;1779222;80;21055;-62
2022/06/20 00:42:02;;;;;;;2.83;1.33;;;;;;;11.48;87.61;99149.50;1776087;78;22777;-62
2022/06/20 00:44:34;;;;;;;2.47;1.30;;;;;;;11.47;88.15;99150.45;1775989;80;21074;-63
2022/06/20 00:47:05;;;;;;;4.05;1.60;;;;;;;11.41;88.44;99130.27;1752255;80;21433;-63
2022/06/20 00:49:43;;;;;;;6.65;1.85;;;;;;;11.39;88.18;99130.82;1777181;79;20986;-63
2022/06/20 00:52:30;;;;;;;4.12;1.77;;;;;;;11.41;88.10;99135.50;1777423;80;21006;-63
2022/06/20 00:55:08;;;;;;;3.77;1.75;;;;;;;11.42;88.16;99143.70;1726153;81;21068;-63
2022/06/20 00:57:44;;;;;;;5.53;1.70;;;;;;;11.41;88.31;99144.65;1775280;80;21056;-63
2022/06/20 01:00:19;;;;;;;2.87;1.52;;;;;;;11.40;88.21;99142.98;1761424;81;21071;-63
2022/06/20 01:02:54;;;;;;;1.77;1.30;;;;;;;11.43;88.22;99138.88;1755604;81;21626;-62
2022/06/20 01:05:42;;;;;;;3.87;1.62;;;;;;;11.41;88.43;99149.88;1759010;81;21566;-63
2022/06/20 01:08:11;;;;;;;;;;;;;;;11.41;88.43;99149.88;1762171;81;21098;-63
2022/06/20 01:10:49;;;;;;;2.08;1.05;;;;;;;11.39;88.58;99149.13;1761171;81;20184;-63
2022/06/20 01:13:20;;;;;;;2.85;1.02;;;;;;;11.39;88.48;99151.73;1762944;81;21555;-63
2022/06/20 01:15:51;;;;;;;3.87;1.07;;;;;;;11.41;88.41;99155.11;1763987;81;21084;-63
2022/06/20 01:18:28;;;;;;;3.55;1.00;;;;;;;11.40;88.51;99142.98;1757496;81;21056;-63
2022/06/20 01:20:58;;;;;;;2.00;0.98;;;;;;;11.37;88.54;99143.17;1763637;81;21085;-63
2022/06/20 01:23:30;;;;;;;2.30;1.10;;;;;;;11.37;88.61;99140.55;1766292;79;21008;-63
2022/06/20 01:26:20;;;;;;;1.80;0.90;;;;;;;11.37;88.60;99145.78;1762766;81;21072;-63
2022/06/20 01:28:52;;;;;;;1.22;0.70;;;;;;;11.38;88.58;99142.22;1745570;81;20977;-63
2022/06/20 01:31:21;;;;;;;3.00;0.85;;;;;;;11.37;88.62;99140.55;1731449;81;20900;-63
2022/06/20 01:33:49;;;;;;;1.52;1.02;;;;;;;11.36;88.77;99132.31;1734407;81;21001;-63
2022/06/20 01:39:04;;;;;;;2.67;1.10;;;;;;;11.35;89.42;99135.04;1735014;82;20961;-63
2022/06/20 01:44:20;;;;;;;2.52;1.07;;;;;;;11.35;89.23;99134.56;1712481;82;21610;-63
2022/06/20 01:46:47;;;;;;;3.25;1.17;;;;;;;11.33;89.33;99136.42;1725388;81;21105;-63
2022/06/20 01:49:19;;;;;;;2.40;0.98;;;;;;;11.33;89.28;99135.11;1734058;81;21040;-63
2022/06/20 01:51:54;;;;;;;3.17;1.07;;;;;;;11.31;89.54;99135.66;1733064;81;21062;-64
2022/06/20 01:54:23;;;;;;;2.40;1.30;;;;;;;11.23;89.52;99122.24;1720901;81;21569;-62
2022/06/20 01:56:51;;;;;;;3.45;1.40;;;;;;;11.25;89.88;99121.66;1735353;81;21111;-62
2022/06/20 01:59:42;;;;;;;4.95;1.50;;;;;;;11.30;89.36;99130.08;1733667;81;22116;-62
2022/06/20 02:02:09;;;;;;;3.58;1.30;;;;;;;11.30;89.36;99130.08;1678112;83;21600;-62
2022/06/20 02:04:37;;;;;;;;;;;;;;;11.32;89.73;99129.53;1714335;81;21087;-63
2022/06/20 02:07:08;;;;;;;1.40;1.00;;;;;;;11.30;89.44;99118.31;1693675;83;20170;-62
2022/06/20 02:09:35;;;;;;;2.35;0.88;;;;;;;11.30;89.65;99101.33;1689368;84;21613;-62
2022/06/20 02:12:04;;;;;;;2.90;1.77;;;;;;;11.28;89.67;99101.87;1676664;84;21433;-63
2022/06/20 02:14:48;;;;;;;3.37;1.05;;;;;;;11.30;89.74;99110.47;1679986;84;21204;-62
2022/06/20 02:17:26;;;;;;;2.02;1.10;;;;;;;11.28;89.64;99097.95;1693680;83;21092;-63
2022/06/20 02:19:55;;;;;;;2.40;1.20;;;;;;;11.32;89.43;99103.39;1691346;83;21112;-62
2022/06/20 02:22:24;;;;;;;4.12;1.55;;;;;;;11.37;89.23;99101.34;1680914;84;21093;-62
2022/06/20 02:24:55;;;;;;;3.05;1.00;;;;;;;11.36;89.11;99110.09;1678358;83;22503;-62
2022/06/20 02:27:39;;;;;;;3.52;1.17;;;;;;;11.34;89.23;99125.05;1692142;83;21124;-62
2022/06/20 02:30:08;;;;;;;3.05;1.10;;;;;;;11.34;89.67;99121.58;1680032;83;21168;-63
2022/06/20 02:32:43;;;;;;;1.67;1.10;;;;;;;11.31;89.37;99133.52;1699782;83;21104;-63
2022/06/20 02:35:15;;;;;;;1.17;0.93;;;;;;;11.29;90.38;99132.33;1690714;83;21112;-63
2022/06/20 02:37:42;;;;;;;1.32;1.00;;;;;;;11.27;89.80;99126.34;1697005;81;21614;-63
2022/06/20 02:40:14;;;;;;;1.75;0.90;;;;;;;11.30;89.73;99115.70;1720831;81;21616;-60
2022/06/20 02:42:58;;;;;;;1.90;1.22;;;;;;;11.30;89.73;99115.70;1715576;82;21410;-62
2022/06/20 02:45:27;;;;;;;3.62;1.30;;;;;;;11.28;89.80;99118.86;1737512;81;21090;-62
2022/06/20 02:47:57;;;;;;;1.98;0.90;;;;;;;11.31;89.52;99123.91;1715613;81;21006;-62
2022/06/20 02:50:29;;;;;;;3.65;1.35;;;;;;;11.35;89.43;99126.73;1751980;81;21561;-62
2022/06/20 02:53:16;;;;;;;2.52;1.10;;;;;;;11.39;89.60;99136.05;1752790;80;21838;-62
2022/06/20 02:55:43;;;;;;;;;;;;;;;11.40;89.33;99156.05;1755060;81;20962;-62
2022/06/20 02:58:20;;;;;;;2.92;0.95;;;;;;;11.44;89.31;99159.31;1718321;83;20194;-62
2022/06/20 03:01:05;;;;;;;3.27;1.35;;;;;;;11.43;89.29;99168.94;1739219;81;21041;-62
2022/06/20 03:03:39;;;;;;;2.90;1.10;;;;;;;11.41;89.41;99165.56;1750914;80;21025;-62
2022/06/20 03:06:10;;;;;;;3.40;1.00;;;;;;;11.44;89.53;99154.08;1719067;82;21096;-62
2022/06/20 03:08:37;;;;;;;1.60;1.10;;;;;;;11.49;89.34;99164.28;1733840;81;21167;-62
2022/06/20 03:11:05;;;;;;;;;;;;;;;11.49;89.34;99164.28;1755243;80;21052;-62
2022/06/20 03:13:34;;;;;;;3.15;1.70;;;;;;;11.59;89.45;99157.55;1717078;82;20816;-61
2022/06/20 03:16:03;;;;;;;2.17;1.00;;;;;;;11.65;89.06;99148.05;1718223;82;21090;-63
2022/06/20 03:18:33;;;;;;;2.77;1.80;;;;;;;11.68;88.86;99157.01;1751996;80;21011;-63
2022/06/20 03:21:00;;;;;;;2.10;0.88;;;;;;;11.54;88.79;99146.52;1745981;81;21046;-63
2022/06/20 03:23:31;;;;;;;1.98;0.85;;;;;;;11.54;88.79;99146.52;1737258;81;21652;-63
2022/06/20 03:26:02;;;;;;;2.65;1.00;;;;;;;11.69;88.88;99132.53;1736375;81;21079;-62
2022/06/20 03:28:32;;;;;;;2.95;1.02;;;;;;;11.69;88.88;99132.53;1739439;81;21434;-62
2022/06/20 03:31:01;;;;;;;3.37;1.35;;;;;;;12.05;88.99;99141.69;1743092;81;21029;-63
2022/06/20 03:33:29;;;;;;;3.00;1.12;;;;;;;12.37;89.04;99146.66;1769571;80;21013;-63
2022/06/20 03:36:06;;;;;;;2.42;0.90;;;;;;;13.26;89.46;99141.70;1750820;81;21128;-63
2022/06/20 03:38:35;;;;;;;3.70;1.32;;;;;;;14.04;87.60;99134.97;1763678;80;20930;-63
2022/06/20 03:41:05;;;;;;;3.30;1.30;;;;;;;14.39;86.31;99133.39;1748706;80;21048;-63
2022/06/20 03:43:34;;;;;;;2.58;0.98;;;;;;;15.31;87.57;99143.20;1710684;82;21029;-63
2022/06/20 03:46:05;;;;;;;4.03;1.50;;;;;;;15.97;85.95;99152.63;1759486;80;20957;-63
2022/06/20 03:48:40;;;;;;;3.45;0.95;;;;;;;16.76;86.49;99155.95;1755359;80;21020;-63
2022/06/20 03:51:15;;;;;;;4.72;1.42;;;;;;;17.71;86.29;99156.88;1750065;80;21052;-64
2022/06/20 03:53:53;;;;;;;5.33;1.30;;;;;;;18.82;85.91;99155.95;1733064;80;22393;-64
2022/06/20 03:56:37;;;;;;;4.33;1.85;;;;;;;19.76;84.55;99146.37;1767322;80;20970;-63
2022/06/20 03:59:24;;;;;;;3.72;1.20;;;;;;;20.10;83.21;99129.90;1723946;81;21005;-64
2022/06/20 04:02:01;;;;;;;3.85;1.72;;;;;;;20.60;81.97;99116.22;1750120;80;21053;-64
2022/06/20 04:04:33;;;;;;;4.97;1.70;;;;;;;20.76;79.35;99137.59;1755289;80;21045;-64
2022/06/20 04:07:08;;;;;;;2.95;1.30;;;;;;;20.29;79.10;99172.20;1747827;80;21217;-64
2022/06/20 04:13:08;;;;;;;3.25;1.30;;;;;;;19.09;78.78;99172.47;1696160;83;21062;-64
2022/06/20 04:15:57;;;;;;;8.88;2.20;;;;;;;19.28;81.08;99166.33;1696989;83;21058;-64
2022/06/20 04:18:38;;;;;;;4.08;1.20;;;;;;;19.87;82.85;99170.02;1696610;83;21124;-63
2022/06/20 04:21:25;;;;;;;7.03;1.87;;;;;;;19.92;78.63;99200.56;1695616;83;21871;-64
2022/06/20 04:24:06;;;;;;;4.20;1.55;;;;;;;19.10;78.35;99195.30;1664255;85;21160;-63
2022/06/20 04:26:47;;;;;;;6.08;1.60;;;;;;;19.25;79.97;99203.17;1687972;83;21678;-62
2022/06/20 04:29:28;;;;;;;4.62;1.50;;;;;;;19.28;79.07;99213.48;1656051;85;21221;-63
2022/06/20 04:32:15;;;;;;;7.08;1.67;;;;;;;19.30;80.43;99204.91;1687174;84;21120;-64
2022/06/20 04:35:02;;;;;;;6.65;1.70;;;;;;;19.86;80.80;99200.16;1684408;84;21157;-64
2022/06/20 04:37:37;;;;;;;14.15;2.00;;;;;;;19.87;77.51;99177.98;1678446;84;21709;-64
2022/06/20 04:40:18;;;;;;;6.80;1.52;;;;;;;19.64;77.95;99177.95;1633026;85;21200;-64
2022/06/20 04:42:56;;;;;;;10.00;2.10;;;;;;;19.13;77.70;99180.45;1684208;83;21143;-63
2022/06/20 04:45:34;;;;;;;9.50;1.75;;;;;;;18.66;78.45;99169.72;1693971;83;21060;-63
2022/06/20 04:48:15;;;;;;;9.03;1.52;;;;;;;18.27;76.88;99170.95;1710775;80;21942;-64
2022/06/20 04:50:45;;;;;;;5.50;1.70;;;;;;;17.20;75.55;99169.91;1745374;80;20950;-64
2022/06/20 04:53:17;;;;;;;5.70;2.10;;;;;;;16.48;76.11;99177.58;1745939;80;21073;-64
2022/06/20 04:55:51;;;;;;;5.78;1.82;;;;;;;16.94;77.91;99144.85;1751816;80;20943;-63
2022/06/20 04:58:29;;;;;;;8.50;1.65;;;;;;;17.72;78.12;99133.46;1749076;80;21044;-64
2022/06/20 05:00:57;;;;;;;12.73;2.12;;;;;;;19.24;77.84;99128.73;1745023;80;21651;-63
2022/06/20 05:03:28;;;;;;;5.97;2.20;;;;;;;20.42;79.39;99115.36;1721688;81;21077;-64
2022/06/20 05:05:58;;;;;;;5.90;2.37;;;;;;;21.99;78.84;99116.36;1728580;81;21414;-64
2022/06/20 05:08:33;;;;;;;6.10;1.87;;;;;;;23.56;77.76;99113.69;1753525;79;21542;-65
2022/06/20 05:11:17;;;;;;;6.17;1.92;;;;;;;23.56;74.81;99112.35;1759086;80;21556;-65
2022/06/20 05:13:49;;;;;;;4.90;1.75;;;;;;;22.71;71.83;99130.00;1757982;80;21540;-65
2022/06/20 05:16:24;;;;;;;9.08;1.92;;;;;;;22.40;74.09;99127.95;1746600;80;21052;-64
2022/06/20 05:18:56;;;;;;;10.77;2.27;;;;;;;22.17;74.49;99122.38;1756328;80;21035;-65
2022/06/20 05:21:31;;;;;;;10.53;2.20;;;;;;;22.08;70.14;99116.21;1744163;81;21960;-65
2022/06/20 05:24:03;;;;;;;7.15;2.42;;;;;;;22.07;72.21;99106.58;1730008;81;21021;-64
2022/06/20 05:26:35;;;;;;;9.83;2.00;;;;;;;21.80;69.56;99102.31;1741897;81;21852;-65
2022/06/20 05:29:07;;;;;;;6.83;2.05;;;;;;;21.65;72.24;99101.27;1735466;81;21060;-64
2022/06/20 05:31:38;;;;;;;5.47;1.95;;;;;;;21.65;73.31;99107.41;1739854;81;21598;-65
2022/06/20 05:34:19;;;;;;;6.97;2.20;;;;;;;21.38;73.40;99112.89;1739254;81;21033;-64
2022/06/20 05:37:25;;;;;;;8.45;1.90;;;;;;;20.90;72.52;99112.34;1736744;81;21088;-63
2022/06/20 05:40:02;;;;;;;7.58;2.15;;;;;;;21.14;71.71;99116.98;1745562;81;21918;-63
2022/06/20 05:42:29;;;;;;;6.78;2.30;;;;;;;22.43;72.84;99116.98;1729485;82;21006;-64
2022/06/20 05:44:56;;;;;;;6.70;2.10;;;;;;;22.59;69.77;99102.89;1738331;81;21071;-64
2022/06/20 05:47:35;;;;;;;6.35;1.90;;;;;;;23.38;67.61;99104.05;1734393;80;20945;-64
2022/06/20 05:50:16;;;;;;;7.33;1.95;;;;;;;23.74;70.92;99086.83;1724084;82;21055;-64
2022/06/20 05:52:44;;;;;;;10.78;2.22;;;;;;;24.93;71.04;99088.30;1752774;81;21107;-64
2022/06/20 05:55:25;;;;;;;6.87;2.00;;;;;;;24.62;67.73;99086.55;1752461;80;20992;-65
2022/06/20 05:57:55;;;;;;;6.35;2.22;;;;;;;24.25;67.43;99082.73;1748390;81;20911;-64
2022/06/20 06:00:27;;;;;;;6.05;1.98;;;;;;;23.49;66.39;99078.05;1760970;79;21018;-65
2022/06/20 06:03:15;;;;;;;9.05;2.12;;;;;;;22.40;62.27;99082.74;1719354;83;21054;-64
2022/06/20 06:05:50;;;;;;;7.83;2.12;;;;;;;21.12;64.74;99083.16;1741809;81;21155;-64
2022/06/20 06:08:40;;;;;;;8.85;2.60;;;;;;;20.55;65.00;99086.66;1740780;80;21323;-65
2022/06/20 06:11:24;;;;;;;12.00;2.60;;;;;;;19.96;65.50;99098.59;1741795;80;20997;-64
2022/06/20 06:14:04;;;;;;;6.62;1.92;;;;;;;20.24;66.80;99086.98;1739234;81;21035;-65
2022/06/20 06:16:48;;;;;;;5.20;1.92;;;;;;;20.02;63.27;99095.35;1744436;81;20926;-66
2022/06/20 06:19:29;;;;;;;6.42;1.57;;;;;;;20.10;65.28;99095.45;1741154;81;22247;-65
2022/06/20 06:22:01;;;;;;;7.75;2.50;;;;;;;19.73;63.25;99101.63;1746033;81;21064;-65
2022/06/20 06:24:30;;;;;;;6.28;2.10;;;;;;;19.49;63.75;99090.68;1738316;81;21523;-65
2022/06/20 06:27:00;;;;;;;8.25;2.20;;;;;;;19.38;64.37;99079.77;1746039;81;20974;-65
2022/06/20 06:29:40;;;;;;;4.78;1.82;;;;;;;19.13;62.18;99080.77;1751093;79;21141;-65
2022/06/20 06:32:33;;;;;;;6.30;1.82;;;;;;;19.36;62.75;99085.22;1753819;80;21076;-65
2022/06/20 06:35:14;;;;;;;4.45;1.92;;;;;;;19.32;62.75;99093.09;1682007;82;21158;-65
2022/06/20 06:38:00;;;;;;;6.85;1.77;;;;;;;18.96;59.47;99098.20;1688480;82;21015;-65
2022/06/20 06:41:30;;;;;;;5.30;1.62;;;;;;;18.28;60.95;99099.95;1839091;75;22762;-66
2022/06/20 06:43:59;;;;;;;9.15;1.92;;;;;;;17.90;61.45;99092.30;1796701;78;21015;-66
2022/06/20 06:46:34;;;;;;;7.85;2.08;;;;;;;17.96;62.15;99087.80;1794661;79;21103;-65
2022/06/20 06:49:24;;;;;;;5.50;1.57;;;;;;;18.07;62.10;99087.68;1774866;78;21567;-66
2022/06/20 06:52:13;;;;;;;4.40;1.62;;;;;;;18.24;62.35;99085.35;1795873;77;22399;-64
2022/06/20 06:55:00;;;;;;;5.12;1.77;;;;;;;18.37;60.40;99091.19;1801004;77;20995;-66
2022/06/20 06:57:30;;;;;;;;;;;;;;;18.39;61.25;99081.32;1796060;77;21030;-65
2022/06/20 07:00:16;;;;;;;6.47;1.92;;;;;;;18.45;61.50;99075.48;1800381;77;21914;-66
2022/06/20 07:02:47;;;;;;;4.47;1.70;;;;;;;18.35;61.05;99085.23;1795774;77;21034;-64
2022/06/20 07:05:37;;;;;;;13.80;2.27;;;;;;;18.15;61.16;99091.44;1795633;77;21086;-65
2022/06/20 07:08:27;;;;;;;14.58;2.67;;;;;;;18.15;62.48;99084.83;1795122;78;21017;-65
2022/06/20 07:11:08;;;;;;;15.15;1.87;;;;;;;18.56;62.27;99083.27;1795878;78;20952;-64
2022/06/20 07:13:43;;;;;;;8.20;2.00;;;;;;;18.33;61.40;99084.52;1800103;78;21493;-65
2022/06/20 07:16:30;;;;;;;11.55;2.10;;;;;;;18.07;60.46;99077.61;1798579;78;21593;-64
2022/06/20 07:18:58;;;;;;;13.62;2.37;;;;;;;18.06;59.28;99073.27;1801693;77;20988;-64
2022/06/20 07:21:28;;;;;;;5.20;1.47;;;;;;;17.93;60.35;99072.71;1803082;77;21624;-65
2022/06/20 07:24:02;;;;;;;6.42;2.15;;;;;;;17.97;60.70;99080.70;1796675;77;21856;-65
2022/06/20 07:26:44;;;;;;;7.35;2.12;;;;;;;18.13;61.25;99077.05;1790863;77;21113;-64
2022/06/20 07:29:24;;;;;;;6.97;1.75;;;;;;;18.33;61.38;99081.88;1795075;78;21136;-65
2022/06/20 07:31:56;;;;;;;4.47;1.50;;;;;;;18.15;60.46;99087.47;1800895;78;21528;-64
2022/06/20 07:34:31;;;;;;;5.22;1.82;;;;;;;17.72;60.46;99091.22;1796732;77;21071;-64
2022/06/20 07:37:03;;;;;;;5.30;1.60;;;;;;;17.50;60.67;99102.30;1796809;77;21010;-65
2022/06/20 07:39:43;;;;;;;5.08;1.67;;;;;;;17.35;60.21;99103.63;1794969;78;20981;-65
2022/06/20 07:42:36;;;;;;;7.60;1.57;;;;;;;16.95;60.45;99099.91;1805542;76;21504;-64
2022/06/20 07:45:09;;;;;;;9.25;1.42;;;;;;;16.61;60.58;99103.16;1804810;78;21603;-64
2022/06/20 07:47:56;;;;;;;5.45;1.42;;;;;;;16.44;60.81;99112.45;1810480;78;21140;-65
2022/06/20 07:50:34;;;;;;;7.05;1.80;;;;;;;16.40;61.22;99116.76;1812781;76;20967;-65
2022/06/20 07:53:36;;;;;;;4.83;1.30;;;;;;;16.50;61.37;99122.97;1807522;76;21037;-64
2022/06/20 07:56:08;;;;;;;7.55;2.25;;;;;;;16.87;61.92;99133.98;1809677;76;21050;-64
2022/06/20 07:58:40;;;;;;;10.75;2.30;;;;;;;17.31;62.13;99137.81;1804996;77;21768;-64
2022/06/20 08:01:20;;;;;;;9.90;1.85;;;;;;;17.67;61.79;99136.03;1808013;77;20977;-64
2022/06/20 08:04:02;;;;;;;11.85;1.77;;;;;;;17.85;61.35;99138.08;1745209;81;21046;-65
2022/06/20 08:06:45;;;;;;;7.15;1.87;;;;;;;17.92;61.20;99129.95;1743121;81;21504;-65
2022/06/20 08:09:27;;;;;;;3.60;1.42;;;;;;;17.64;60.49;99112.53;1745444;81;21095;-65
2022/06/20 08:12:13;;;;;;;3.10;1.40;;;;;;;17.10;60.56;99103.05;1741360;81;21053;-64
2022/06/20 08:14:56;;;;;;;8.13;1.30;;;;;;;16.69;60.81;99107.33;1705969;83;21095;-64
2022/06/20 08:17:24;;;;;;;4.58;1.45;;;;;;;16.28;60.61;99124.69;1711595;82;21119;-65
2022/06/20 08:19:51;;;;;;;5.42;1.32;;;;;;;15.73;60.98;99127.73;1688726;84;21136;-65
2022/06/20 08:22:53;;;;;;;6.92;1.98;;;;;;;15.53;61.56;99133.69;1690979;84;21089;-64
2022/06/20 08:25:28;;;;;;;5.12;1.37;;;;;;;15.54;61.97;99135.34;1689067;84;21100;-64
2022/06/20 08:28:06;;;;;;;5.97;1.40;;;;;;;15.76;62.30;99144.60;1690651;82;21117;-64
2022/06/20 08:30:44;;;;;;;4.92;1.45;;;;;;;15.86;62.18;99142.94;1689270;84;21025;-64
2022/06/20 08:33:27;;;;;;;3.02;1.20;;;;;;;15.87;61.98;99139.34;1689519;84;21161;-63
2022/06/20 08:36:02;;;;;;;5.15;1.87;;;;;;;15.67;61.83;99142.66;1686631;84;20950;-64
2022/06/20 08:38:49;;;;;;;4.78;1.40;;;;;;;15.50;62.33;99156.28;1691248;84;21188;-63
2022/06/20 08:41:39;;;;;;;7.45;1.65;;;;;;;15.49;62.58;99182.22;1739481;80;21270;-64
2022/06/20 08:44:17;;;;;;;4.87;1.95;;;;;;;15.38;62.45;99178.63;1772765;80;20985;-64
2022/06/20 08:47:06;;;;;;;8.58;1.87;;;;;;;15.20;62.60;99195.78;1776032;80;21065;-64
2022/06/20 08:49:59;;;;;;;4.80;1.57;;;;;;;15.13;62.88;99206.41;1780626;80;20918;-64
2022/06/20 08:52:50;;;;;;;3.55;1.25;;;;;;;14.99;62.86;99218.78;1775605;80;20991;-65
2022/06/20 08:55:56;;;;;;;22.98;2.60;;;;;;;14.93;63.09;99221.86;1779318;80;20976;-66
2022/06/20 08:58:32;;;;;;;6.90;1.50;;;;;;;14.95;63.50;99240.13;1766412;80;20989;-64
2022/06/20 09:01:29;;;;;;;6.97;1.72;;;;;;;14.94;63.53;99254.23;1785320;80;21924;-65
2022/06/20 09:04:01;;;;;;;4.80;1.32;;;;;;;14.96;63.73;99261.06;1775952;80;21020;-64
2022/06/20 09:06:57;;;;;;;26.62;3.12;;;;;;;14.97;63.76;99270.63;1778638;80;21067;-64
2022/06/20 09:10:42;;;;;;;13.62;2.25;;;;;;;14.96;63.96;99262.37;1832563;76;22707;-64
2022/06/20 09:13:23;;;;;;;4.80;1.00;;;;;;;14.89;64.08;99258.98;1794648;77;21061;-64
2022/06/20 09:16:20;;;;;;;7.05;2.22;;;;;;;14.88;64.16;99238.44;1793153;77;21117;-64
2022/06/20 09:19:11;;;;;;;;;;;;;;;14.89;64.48;99223.02;1797975;77;21013;-64
2022/06/20 09:21:49;;;;;;;9.73;2.10;;;;;;;14.96;64.98;99213.75;1795554;78;20426;-63
2022/06/20 09:24:55;;;;;;;6.67;2.00;;;;;;;15.04;64.90;99201.81;1788755;79;21091;-65
2022/06/20 09:27:48;;;;;;;6.97;3.52;;;;;;;15.11;65.09;99192.53;1799798;77;21494;-61
2022/06/20 09:30:32;;;;;;;3.60;1.62;;;;;;;15.27;65.36;99195.70;1800372;78;21153;-63
2022/06/20 09:33:27;;;;;;;2.12;1.17;;;;;;;15.45;65.50;99160.09;1796220;79;21090;-63
2022/06/20 09:36:34;;;;;;;3.67;1.30;;;;;;;15.56;65.48;99126.87;1791463;78;20932;-64
2022/06/20 09:39:38;;;;;;;6.67;1.80;;;;;;;15.72;65.44;99081.81;1712723;82;21142;-64
2022/06/20 09:42:13;;;;;;;3.58;1.35;;;;;;;15.76;65.13;99044.58;1656018;85;21165;-64
2022/06/20 09:44:51;;;;;;;4.40;1.65;;;;;;;15.71;65.24;99032.30;1659027;85;21130;-64
2022/06/20 09:47:47;;;;;;;4.22;1.65;;;;;;;15.58;65.30;99039.45;1653008;85;21093;-64
2022/06/20 09:50:21;;;;;;;;;;;;;;;15.49;65.73;99046.72;1641621;85;21136;-63
2022/06/20 09:52:58;;;;;;;5.28;1.27;;;;;;;15.41;66.17;99013.98;1653544;85;21213;-63
2022/06/20 09:56:11;;;;;;;4.45;1.40;;;;;;;15.33;65.91;98997.13;1645019;85;21677;-63
2022/06/20 09:59:04;;;;;;;3.10;1.27;;;;;;;15.17;66.17;99006.20;1658291;85;21458;-64
2022/06/20 10:01:39;;;;;;;4.53;1.22;;;;;;;15.13;66.49;99011.83;1657486;85;21056;-64
2022/06/20 10:04:39;;;;;;;4.47;1.20;;;;;;;15.11;66.82;99004.05;1651780;85;21334;-65
2022/06/20 10:07:36;;;;;;;2.15;1.07;;;;;;;15.12;66.77;98983.84;1640763;85;21172;-64
2022/06/20 10:10:17;;;;;;;4.12;1.55;;;;;;;14.98;66.90;98971.31;1651985;85;21066;-63
2022/06/20 10:13:10;;;;;;;3.42;1.25;;;;;;;14.91;67.13;99002.96;1608843;88;21657;-64
2022/06/20 10:15:42;;;;;;;3.72;1.50;;;;;;;14.91;67.40;99026.61;1612064;85;21178;-63
2022/06/20 10:18:30;;;;;;;4.33;1.55;;;;;;;14.91;67.65;99026.61;1671514;82;21689;-63
2022/06/20 10:21:23;;;;;;;4.25;1.95;;;;;;;14.75;67.69;99018.22;1689959;82;21040;-63
2022/06/20 10:24:07;;;;;;;3.87;1.40;;;;;;;14.75;68.16;99015.59;1690017;81;22335;-65
2022/06/20 10:27:00;;;;;;;3.37;1.27;;;;;;;14.75;68.18;99022.98;1699900;81;21419;-64
2022/06/20 10:29:50;;;;;;;7.55;1.80;;;;;;;14.69;68.09;99043.16;1690590;81;21297;-64
2022/06/20 10:32:23;;;;;;;3.55;1.10;;;;;;;14.66;68.76;99057.02;1697976;82;20996;-64
2022/06/20 10:35:10;;;;;;;4.40;1.35;;;;;;;14.70;68.87;99063.25;1697604;81;21008;-64
2022/06/20 10:38:02;;;;;;;8.15;1.10;;;;;;;14.68;69.08;99056.44;1698681;81;21126;-62
2022/06/20 10:40:49;;;;;;;3.33;1.45;;;;;;;14.67;68.96;99058.20;1698086;82;21588;-63
2022/06/20 10:43:45;;;;;;;4.65;1.37;;;;;;;14.71;69.21;99083.80;1689819;82;21232;-63
2022/06/20 10:46:44;;;;;;;2.95;1.32;;;;;;;14.73;69.38;99105.06;1693051;82;21108;-64
2022/06/20 10:49:52;;;;;;;6.05;1.37;;;;;;;14.77;69.63;99105.66;1696445;80;20938;-62
2022/06/20 10:52:53;;;;;;;3.45;1.22;;;;;;;14.88;69.80;99125.90;1769756;78;21042;-63
2022/06/20 10:55:59;;;;;;;3.58;1.30;;;;;;;14.99;70.04;99129.39;1767987;79;21077;-63
2022/06/20 10:58:46;;;;;;;2.65;1.27;;;;;;;14.98;69.83;99114.59;1759095;79;22081;-63
2022/06/20 11:01:27;;;;;;;6.55;2.02;;;;;;;14.85;70.39;99124.33;1724449;80;21808;-63
2022/06/20 11:04:14;;;;;;;3.55;1.22;;;;;;;14.90;70.66;99113.01;1774506;79;20917;-65
2022/06/20 11:06:46;;;;;;;4.45;1.60;;;;;;;14.99;70.80;99088.65;1679793;83;22434;-64
2022/06/20 11:09:29;;;;;;;4.47;1.57;;;;;;;15.23;70.61;99073.26;1717669;82;22251;-63
2022/06/20 11:12:20;;;;;;;3.70;1.30;;;;;;;15.71;71.26;99066.51;1713949;82;20973;-63
2022/06/20 11:14:58;;;;;;;2.42;1.32;;;;;;;16.05;70.40;99057.23;1722485;81;21095;-63
2022/06/20 11:18:03;;;;;;;3.02;1.20;;;;;;;16.53;70.67;99047.13;1717309;83;20970;-64
2022/06/20 11:20:53;;;;;;;4.12;1.52;;;;;;;16.89;70.55;99033.68;1719182;82;21148;-64
2022/06/20 11:23:40;;;;;;;3.22;1.32;;;;;;;17.41;70.55;99018.66;1706843;82;22623;-63
2022/06/20 11:26:12;;;;;;;5.15;1.77;;;;;;;18.03;70.72;99004.38;1720013;82;21014;-64
2022/06/20 11:28:56;;;;;;;5.72;1.80;;;;;;;18.05;69.70;99010.37;1721140;82;21088;-63
2022/06/20 11:32:02;;;;;;;6.42;2.08;;;;;;;18.23;69.84;99009.67;1716625;81;21108;-64
2022/06/20 11:35:13;;;;;;;3.13;1.70;;;;;;;18.33;69.69;99017.13;1710476;82;21120;-65
2022/06/20 11:38:20;;;;;;;5.47;1.47;;;;;;;18.01;69.21;99006.34;1703120;81;21093;-64
2022/06/20 11:41:01;;;;;;;5.78;1.80;;;;;;;17.83;69.38;99005.33;1717805;82;22276;-63
2022/06/20 11:44:06;;;;;;;4.42;1.50;;;;;;;17.90;69.47;99011.75;1727009;81;21028;-64
2022/06/20 11:46:48;;;;;;;5.40;1.67;;;;;;;17.89;69.03;99000.81;1755637;79;21116;-64
2022/06/20 11:49:48;;;;;;;3.80;1.67;;;;;;;17.81;69.26;98980.86;1759908;79;21008;-63
2022/06/20 11:52:29;;;;;;;6.20;1.70;;;;;;;17.93;69.29;98967.90;1761219;79;22378;-64
2022/06/20 11:55:28;;;;;;;5.15;1.65;;;;;;;18.03;68.89;98970.04;1743300;80;21444;-63
2022/06/20 11:58:30;;;;;;;5.97;2.08;;;;;;;18.17;68.52;98966.16;1761138;78;21523;-61
2022/06/20 12:01:14;;;;;;;6.35;1.92;;;;;;;18.39;68.49;98970.31;1758989;79;21580;-63
2022/06/20 12:04:01;;;;;;;9.05;2.33;;;;;;;18.64;68.65;98976.83;1704583;82;21229;-64
2022/06/20 12:06:42;;;;;;;4.47;1.67;;;;;;;18.76;67.76;98961.66;1700439;82;21461;-63
2022/06/20 12:09:28;;;;;;;6.53;1.82;;;;;;;18.49;67.87;98965.86;1701327;82;21204;-64
2022/06/20 12:12:29;;;;;;;5.03;1.98;;;;;;;18.58;67.68;98962.03;1738328;80;21098;-64
2022/06/20 12:17:14;;;;;;;6.05;1.82;;;;;;;19.01;67.31;98955.73;1865594;75;22614;-63
2022/06/20 12:27:52;;;;;;;10.35;2.00;;;;;;;18.29;66.11;98966.87;1736520;81;21044;-64
2022/06/20 12:30:20;;;;;;;5.83;1.50;;;;;;;18.00;66.19;98972.95;1615897;87;21189;-63
2022/06/20 12:32:52;;;;;;;6.50;1.47;;;;;;;17.75;65.72;98973.45;1617378;87;22336;-64
2022/06/20 12:35:28;;;;;;;3.40;1.47;;;;;;;17.50;65.40;98986.17;1633576;86;21542;-63
2022/06/20 12:39:25;;;;;;;4.10;1.22;;;;;;;17.29;65.43;99001.25;1855238;75;22777;-63
2022/06/20 12:42:04;;;;;;;3.87;1.37;;;;;;;17.03;65.15;99012.25;1717603;81;21264;-63
2022/06/20 12:44:48;;;;;;;6.03;1.57;;;;;;;16.67;64.72;99013.52;1719623;81;21749;-64
2022/06/20 12:47:35;;;;;;;2.92;1.32;;;;;;;16.52;65.10;99020.88;1718444;81;20998;-63
2022/06/20 12:50:24;;;;;;;3.90;1.62;;;;;;;16.45;65.22;99023.20;1717460;81;21089;-63
2022/06/20 12:53:13;;;;;;;3.30;1.50;;;;;;;16.28;65.03;99035.13;1717939;81;20955;-63
2022/06/20 12:56:19;;;;;;;5.75;1.60;;;;;;;16.16;65.21;99029.55;1718033;81;21316;-63